createdAt,value
2023-03-06T00:00:32.346Z,17.05
2023-03-06T00:02:58.732Z,16.98
2023-03-06T00:05:25.113Z,16.91
2023-03-06T00:07:51.442Z,16.83
2023-03-06T00:10:17.678Z,16.76
2023-03-06T00:12:43.997Z,16.68
2023-03-06T00:15:10.362Z,16.61
2023-03-06T00:17:36.661Z,16.54
2023-03-06T00:20:02.983Z,16.47
2023-03-06T00:22:29.273Z,16.40
2023-03-06T00:24:55.585Z,16.35
2023-03-06T00:27:22.101Z,16.27
2023-03-06T00:29:48.520Z,16.11
2023-03-06T00:32:14.852Z,16.13
2023-03-06T00:34:41.177Z,16.09
2023-03-06T00:37:07.521Z,16.03
2023-03-06T00:39:33.789Z,15.96
2023-03-06T00:42:00.126Z,15.89
2023-03-06T00:44:26.453Z,15.83
2023-03-06T00:46:52.791Z,15.77
2023-03-06T00:49:21.377Z,15.73
2023-03-06T00:51:47.653Z,15.67
2023-03-06T00:54:13.897Z,15.60
2023-03-06T00:56:40.196Z,15.56
2023-03-06T00:59:06.611Z,15.51
2023-03-06T01:01:33.008Z,15.46
2023-03-06T01:03:59.313Z,15.41
2023-03-06T01:06:25.621Z,15.35
2023-03-06T01:08:51.934Z,15.30
2023-03-06T01:11:18.313Z,15.26
2023-03-06T01:13:44.567Z,15.22
2023-03-06T01:16:10.979Z,15.17
2023-03-06T01:18:37.334Z,15.12
2023-03-06T01:21:03.629Z,15.08
2023-03-06T01:23:29.969Z,15.05
2023-03-06T01:25:56.303Z,15.03
2023-03-06T01:28:22.588Z,14.98
2023-03-06T01:30:48.836Z,14.93
2023-03-06T01:33:15.143Z,14.89
2023-03-06T01:35:41.459Z,14.85
2023-03-06T01:38:08.076Z,14.82
2023-03-06T01:40:34.628Z,14.78
2023-03-06T01:43:01.086Z,14.74
2023-03-06T01:45:27.420Z,14.68
2023-03-06T01:47:53.834Z,14.63
2023-03-06T01:50:20.111Z,14.58
2023-03-06T01:52:46.525Z,14.54
2023-03-06T01:55:12.875Z,14.50
2023-03-06T01:57:39.157Z,14.46
2023-03-06T02:00:05.547Z,14.41
2023-03-06T02:02:31.883Z,14.39
2023-03-06T02:04:58.202Z,14.37
2023-03-06T02:07:24.515Z,14.33
2023-03-06T02:09:50.805Z,14.31
2023-03-06T02:12:17.140Z,14.26
2023-03-06T02:14:43.564Z,14.23
2023-03-06T02:17:09.871Z,14.19
2023-03-06T02:19:36.136Z,14.15
2023-03-06T02:22:02.405Z,14.10
2023-03-06T02:24:28.772Z,14.08
2023-03-06T02:26:55.061Z,14.04
2023-03-06T02:29:21.363Z,14.01
2023-03-06T02:31:47.888Z,13.99
2023-03-06T02:34:14.383Z,13.96
2023-03-06T02:36:43.698Z,13.93
2023-03-06T02:39:09.989Z,13.91
2023-03-06T02:41:36.309Z,13.89
2023-03-06T02:44:02.610Z,13.86
2023-03-06T02:46:28.876Z,13.83
2023-03-06T02:48:55.208Z,13.78
2023-03-06T02:51:21.495Z,13.75
2023-03-06T02:53:47.837Z,13.71
2023-03-06T02:56:14.098Z,13.69
2023-03-06T02:58:40.415Z,13.67
2023-03-06T03:01:07.028Z,13.65
2023-03-06T03:03:33.390Z,13.63
2023-03-06T03:05:59.633Z,13.61
2023-03-06T03:08:26.355Z,13.57
2023-03-06T03:10:53.034Z,13.56
2023-03-06T03:13:19.302Z,13.52
2023-03-06T03:15:45.778Z,13.50
2023-03-06T03:18:12.151Z,13.48
2023-03-06T03:20:38.442Z,13.46
2023-03-06T03:23:04.768Z,13.43
2023-03-06T03:25:31.133Z,13.41
2023-03-06T03:27:57.437Z,13.39
2023-03-06T03:30:23.889Z,13.36
2023-03-06T03:32:50.158Z,13.33
2023-03-06T03:35:16.492Z,13.29
2023-03-06T03:37:42.816Z,13.28
2023-03-06T03:40:09.033Z,13.26
2023-03-06T03:42:35.328Z,13.23
2023-03-06T03:45:01.950Z,13.20
2023-03-06T03:47:28.391Z,13.18
2023-03-06T03:49:54.748Z,13.16
2023-03-06T03:52:21.064Z,13.14
2023-03-06T03:54:47.410Z,13.11
2023-03-06T03:57:13.731Z,13.09
2023-03-06T03:59:40.062Z,13.07
2023-03-06T04:02:06.513Z,13.06
2023-03-06T04:04:33.023Z,13.03
2023-03-06T04:06:59.436Z,13.02
2023-03-06T04:09:25.832Z,13.01
2023-03-06T04:11:52.128Z,12.99
2023-03-06T04:14:18.461Z,12.97
2023-03-06T04:16:46.772Z,12.96
2023-03-06T04:19:14.339Z,12.93
2023-03-06T04:21:41.114Z,12.92
2023-03-06T04:24:08.270Z,12.90
2023-03-06T04:26:34.885Z,12.87
2023-03-06T04:29:01.971Z,12.84
2023-03-06T04:31:28.340Z,12.82
2023-03-06T04:33:54.695Z,12.80
2023-03-06T04:36:21.472Z,12.76
2023-03-06T04:38:48.250Z,12.73
2023-03-06T04:41:15.404Z,12.60
2023-03-06T04:43:41.846Z,12.68
2023-03-06T04:46:08.607Z,12.66
2023-03-06T04:48:34.989Z,12.66
2023-03-06T04:51:02.556Z,12.65
2023-03-06T04:53:30.356Z,12.63
2023-03-06T04:55:56.692Z,12.62
2023-03-06T04:58:23.172Z,12.61
2023-03-06T05:00:50.313Z,12.59
2023-03-06T05:03:17.194Z,12.58
2023-03-06T05:05:43.689Z,12.56
2023-03-06T05:08:09.980Z,12.54
2023-03-06T05:10:36.662Z,12.51
2023-03-06T05:13:04.114Z,12.49
2023-03-06T05:15:30.402Z,12.47
2023-03-06T05:17:58.770Z,12.45
2023-03-06T05:20:25.693Z,12.45
2023-03-06T05:22:51.943Z,12.43
2023-03-06T05:25:18.858Z,12.42
2023-03-06T05:27:45.695Z,12.39
2023-03-06T05:30:12.011Z,12.38
2023-03-06T05:32:38.836Z,12.36
2023-03-06T05:35:05.288Z,12.35
2023-03-06T05:37:32.907Z,12.34
2023-03-06T05:40:00.758Z,12.32
2023-03-06T05:42:28.620Z,12.32
2023-03-06T05:44:55.320Z,12.30
2023-03-06T05:47:22.191Z,12.30
2023-03-06T05:49:48.846Z,12.28
2023-03-06T05:52:15.171Z,12.27
2023-03-06T05:54:41.392Z,12.26
2023-03-06T05:57:08.449Z,12.25
2023-03-06T05:59:35.905Z,12.22
2023-03-06T06:02:02.181Z,12.22
2023-03-06T06:04:31.102Z,12.21
2023-03-06T06:06:57.380Z,12.20
2023-03-06T06:09:23.864Z,12.18
2023-03-06T06:11:50.099Z,12.17
2023-03-06T06:14:17.217Z,12.16
2023-03-06T06:16:44.178Z,12.14
2023-03-06T06:19:12.220Z,12.12
2023-03-06T06:21:38.632Z,12.12
2023-03-06T06:24:04.972Z,12.11
2023-03-06T06:26:34.203Z,12.10
2023-03-06T06:29:00.529Z,12.09
2023-03-06T06:31:27.522Z,12.07
2023-03-06T06:33:54.334Z,12.06
2023-03-06T06:36:20.996Z,12.13
2023-03-06T06:38:47.291Z,12.44
2023-03-06T06:44:00.265Z,13.35
2023-03-06T06:47:17.837Z,13.69
2023-03-06T06:49:14.239Z,14.00
2023-03-06T06:51:41.195Z,14.22
2023-03-06T06:54:08.015Z,14.39
2023-03-06T06:56:35.180Z,14.56
2023-03-06T06:59:15.744Z,14.75
2023-03-06T07:01:43.498Z,14.98
2023-03-06T07:04:10.212Z,15.17
2023-03-06T07:06:36.680Z,15.38
2023-03-06T07:09:03.247Z,15.56
2023-03-06T07:11:31.287Z,15.73
2023-03-06T07:13:58.258Z,15.92
2023-03-06T07:16:25.649Z,16.10
2023-03-06T07:18:53.382Z,16.29
2023-03-06T07:21:20.152Z,16.48
2023-03-06T07:23:48.194Z,16.64
2023-03-06T07:26:14.534Z,16.82
2023-03-06T07:28:52.024Z,16.99
2023-03-06T07:31:19.949Z,17.15
2023-03-06T07:33:46.233Z,17.29
2023-03-06T07:36:13.902Z,17.43
2023-03-06T07:38:40.707Z,17.61
2023-03-06T07:41:07.055Z,17.77
2023-03-06T07:43:33.335Z,17.91
2023-03-06T07:46:00.422Z,18.05
2023-03-06T07:48:26.858Z,18.16
2023-03-06T07:50:55.262Z,18.29
2023-03-06T07:53:21.572Z,18.35
2023-03-06T07:55:48.886Z,18.37
2023-03-06T07:58:15.523Z,18.34
2023-03-06T08:00:42.164Z,18.32
2023-03-06T08:03:08.770Z,18.30
2023-03-06T08:05:35.091Z,18.27
2023-03-06T08:08:02.207Z,18.22
2023-03-06T08:10:28.554Z,18.17
2023-03-06T08:12:56.996Z,18.14
2023-03-06T08:15:23.436Z,18.11
2023-03-06T08:17:49.765Z,18.10
2023-03-06T08:20:16.398Z,18.08
2023-03-06T08:22:43.964Z,18.10
2023-03-06T08:25:11.413Z,18.09
2023-03-06T08:27:37.743Z,18.08
2023-03-06T08:30:06.614Z,18.05
2023-03-06T08:32:34.124Z,18.03
2023-03-06T08:35:01.506Z,17.99
2023-03-06T08:37:29.102Z,17.98
2023-03-06T08:39:57.202Z,17.95
2023-03-06T08:42:23.466Z,17.94
2023-03-06T08:44:50.564Z,17.92
2023-03-06T08:47:18.960Z,17.88
2023-03-06T08:49:46.435Z,17.85
2023-03-06T08:52:13.402Z,17.83
2023-03-06T08:54:40.385Z,17.81
2023-03-06T08:57:07.885Z,17.81
2023-03-06T08:59:35.606Z,17.78
2023-03-06T09:02:02.966Z,17.78
2023-03-06T09:04:29.518Z,17.79
2023-03-06T09:06:55.830Z,17.79
2023-03-06T09:09:23.460Z,17.80
2023-03-06T09:11:50.077Z,17.81
2023-03-06T09:14:17.240Z,17.79
2023-03-06T09:16:44.053Z,17.76
2023-03-06T09:19:11.695Z,17.73
2023-03-06T09:21:38.950Z,17.73
2023-03-06T09:24:05.233Z,17.72
2023-03-06T09:26:45.058Z,17.73
2023-03-06T09:29:12.857Z,17.74
2023-03-06T09:31:39.574Z,17.74
2023-03-06T09:34:05.890Z,17.75
2023-03-06T09:36:42.725Z,17.75
2023-03-06T09:39:12.950Z,17.76
2023-03-06T09:41:40.870Z,17.78
2023-03-06T09:44:07.219Z,17.82
2023-03-06T09:46:35.748Z,17.84
2023-03-06T09:49:02.067Z,17.87
2023-03-06T09:51:28.385Z,17.89
2023-03-06T09:53:55.433Z,17.91
2023-03-06T09:56:21.810Z,17.92
2023-03-06T09:58:49.850Z,17.94
2023-03-06T10:01:17.017Z,17.99
2023-03-06T10:03:43.456Z,18.02
2023-03-06T10:06:09.757Z,18.05
2023-03-06T10:08:36.268Z,18.07
2023-03-06T10:11:03.442Z,18.08
2023-03-06T10:13:31.270Z,18.07
2023-03-06T10:15:57.638Z,18.06
2023-03-06T10:18:24.223Z,18.05
2023-03-06T10:20:51.984Z,18.04
2023-03-06T10:23:19.225Z,18.04
2023-03-06T10:25:45.679Z,18.05
2023-03-06T10:28:13.898Z,18.08
2023-03-06T10:30:41.703Z,18.24
2023-03-06T10:33:08.409Z,18.42
2023-03-06T10:35:35.132Z,18.46
2023-03-06T10:38:01.760Z,18.50
2023-03-06T10:40:28.798Z,18.62
2023-03-06T10:43:10.764Z,18.71
2023-03-06T10:45:48.878Z,18.79
2023-03-06T10:48:15.819Z,18.85
2023-03-06T10:50:43.090Z,18.92
2023-03-06T10:53:09.515Z,18.95
2023-03-06T10:55:35.995Z,18.98
2023-03-06T10:58:02.277Z,19.02
2023-03-06T11:00:29.653Z,19.05
2023-03-06T11:02:57.060Z,19.07
2023-03-06T11:05:24.404Z,19.05
2023-03-06T11:07:50.760Z,19.06
2023-03-06T11:10:17.868Z,19.05
2023-03-06T11:12:46.101Z,19.04
2023-03-06T11:15:12.721Z,19.02
2023-03-06T11:17:40.510Z,19.02
2023-03-06T11:20:08.207Z,19.02
2023-03-06T11:22:34.587Z,19.00
2023-03-06T11:25:01.011Z,18.99
2023-03-06T11:27:27.551Z,18.99
2023-03-06T11:29:54.719Z,18.99
2023-03-06T11:32:21.092Z,18.98
2023-03-06T11:34:49.926Z,18.94
2023-03-06T11:37:16.820Z,18.89
2023-03-06T11:39:43.546Z,18.86
2023-03-06T11:42:10.509Z,18.86
2023-03-06T11:44:37.216Z,18.84
2023-03-06T11:47:03.532Z,18.81
2023-03-06T11:49:31.745Z,18.79
2023-03-06T11:51:59.375Z,18.77
2023-03-06T11:54:26.311Z,18.76
2023-03-06T11:56:52.674Z,18.75
2023-03-06T11:59:20.434Z,18.74
2023-03-06T12:01:48.851Z,18.74
2023-03-06T12:04:15.222Z,18.73
2023-03-06T12:06:42.301Z,18.72
2023-03-06T12:09:09.850Z,18.69
2023-03-06T12:11:36.268Z,18.69
2023-03-06T12:14:04.143Z,18.67
2023-03-06T12:16:31.145Z,18.64
2023-03-06T12:18:59.557Z,18.60
2023-03-06T12:21:25.938Z,18.58
2023-03-06T12:23:52.374Z,18.56
2023-03-06T12:26:19.440Z,18.53
2023-03-06T12:28:46.517Z,18.52
2023-03-06T12:31:13.871Z,18.51
2023-03-06T12:33:40.085Z,18.48
2023-03-06T12:36:06.598Z,18.48
2023-03-06T12:38:33.111Z,18.46
2023-03-06T12:40:59.437Z,18.45
2023-03-06T12:43:25.796Z,18.44
2023-03-06T12:45:52.279Z,18.42
2023-03-06T12:48:18.637Z,18.41
2023-03-06T12:50:44.964Z,18.41
2023-03-06T12:53:11.995Z,18.40
2023-03-06T12:55:38.491Z,18.39
2023-03-06T12:58:04.978Z,18.39
2023-03-06T13:00:31.339Z,18.38
2023-03-06T13:02:57.691Z,18.36
2023-03-06T13:05:24.021Z,18.37
2023-03-06T13:07:50.491Z,18.38
2023-03-06T13:10:16.855Z,18.39
2023-03-06T13:12:43.148Z,18.39
2023-03-06T13:15:10.555Z,18.41
2023-03-06T13:17:36.941Z,18.44
2023-03-06T13:20:04.860Z,18.44
2023-03-06T13:22:31.141Z,18.43
2023-03-06T13:25:03.457Z,18.40
2023-03-06T13:27:33.958Z,18.39
2023-03-06T13:30:00.580Z,18.38
2023-03-06T13:32:27.966Z,18.38
2023-03-06T13:34:54.474Z,18.36
2023-03-06T13:37:21.366Z,18.35
2023-03-06T13:39:48.298Z,18.33
2023-03-06T13:42:15.435Z,18.30
2023-03-06T13:44:41.777Z,18.30
2023-03-06T13:47:08.164Z,18.29
2023-03-06T13:49:35.953Z,18.31
2023-03-06T13:52:02.754Z,18.36
2023-03-06T13:54:30.700Z,18.40
2023-03-06T13:56:58.402Z,18.40
2023-03-06T13:59:25.743Z,18.38
2023-03-06T14:01:52.860Z,18.36
2023-03-06T14:04:20.453Z,18.34
2023-03-06T14:06:46.978Z,18.32
2023-03-06T14:09:14.691Z,18.33
2023-03-06T14:11:41.813Z,18.32
2023-03-06T14:14:08.303Z,18.31
2023-03-06T14:16:47.614Z,18.31
2023-03-06T14:19:15.906Z,18.28
2023-03-06T14:21:43.222Z,18.27
2023-03-06T14:24:10.540Z,18.27
2023-03-06T14:26:36.957Z,18.25
2023-03-06T14:29:04.403Z,18.25
2023-03-06T14:31:32.906Z,18.22
2023-03-06T14:34:00.571Z,18.20
2023-03-06T14:36:27.224Z,18.19
2023-03-06T14:38:54.491Z,18.18
2023-03-06T14:41:20.799Z,18.15
2023-03-06T14:43:47.139Z,18.13
2023-03-06T14:46:13.510Z,18.10
2023-03-06T14:48:40.150Z,18.08
2023-03-06T14:51:07.693Z,18.01
2023-03-06T14:53:34.107Z,18.07
2023-03-06T14:56:00.702Z,18.07
2023-03-06T14:58:27.002Z,18.11
2023-03-06T15:00:54.874Z,18.15
2023-03-06T15:03:21.486Z,18.22
2023-03-06T15:05:48.319Z,18.33
2023-03-06T15:08:15.610Z,18.46
2023-03-06T15:10:41.898Z,18.58
2023-03-06T15:13:08.623Z,18.73
2023-03-06T15:15:36.013Z,18.89
2023-03-06T15:18:04.676Z,19.00
2023-03-06T15:20:31.881Z,19.10
2023-03-06T15:22:58.868Z,19.18
2023-03-06T15:25:27.293Z,19.22
2023-03-06T15:27:53.583Z,19.27
2023-03-06T15:30:20.066Z,19.30
2023-03-06T15:32:48.214Z,19.31
2023-03-06T15:35:15.100Z,19.30
2023-03-06T15:37:42.727Z,19.29
2023-03-06T15:40:09.050Z,19.27
2023-03-06T15:42:38.210Z,19.23
2023-03-06T15:45:05.181Z,19.20
2023-03-06T15:47:33.109Z,19.17
2023-03-06T15:50:00.208Z,19.14
2023-03-06T15:52:26.659Z,19.10
2023-03-06T15:54:53.087Z,19.08
2023-03-06T15:57:20.401Z,19.08
2023-03-06T15:59:46.768Z,19.04
2023-03-06T16:02:13.106Z,19.00
2023-03-06T16:04:40.113Z,18.95
2023-03-06T16:07:07.020Z,18.91
2023-03-06T16:09:33.285Z,18.87
2023-03-06T16:12:01.670Z,18.84
2023-03-06T16:14:28.332Z,18.81
2023-03-06T16:16:55.730Z,18.78
2023-03-06T16:19:29.243Z,18.75
2023-03-06T16:21:56.330Z,18.72
2023-03-06T16:24:23.282Z,18.71
2023-03-06T16:26:49.795Z,18.69
2023-03-06T16:29:17.160Z,18.67
2023-03-06T16:31:44.229Z,18.67
2023-03-06T16:34:10.982Z,18.64
2023-03-06T16:36:37.651Z,18.63
2023-03-06T16:39:04.153Z,18.61
2023-03-06T16:41:31.068Z,18.60
2023-03-06T16:43:59.192Z,18.60
2023-03-06T16:46:27.201Z,18.61
2023-03-06T16:48:53.680Z,18.60
2023-03-06T16:51:21.612Z,18.62
2023-03-06T16:53:47.975Z,18.63
2023-03-06T16:56:14.294Z,18.63
2023-03-06T16:58:40.566Z,18.65
2023-03-06T17:01:11.699Z,18.65
2023-03-06T17:03:39.212Z,18.67
2023-03-06T17:06:05.536Z,18.68
2023-03-06T17:08:32.360Z,18.67
2023-03-06T17:10:58.702Z,18.68
2023-03-06T17:13:25.052Z,18.69
2023-03-06T17:15:51.349Z,18.69
2023-03-06T17:18:17.785Z,18.69
2023-03-06T17:20:44.254Z,18.70
2023-03-06T17:23:10.525Z,18.70
2023-03-06T17:25:36.871Z,18.70
2023-03-06T17:28:03.204Z,18.70
2023-03-06T17:30:29.929Z,18.70
2023-03-06T17:32:56.239Z,18.69
2023-03-06T17:35:22.668Z,18.69
2023-03-06T17:37:49.204Z,18.68
2023-03-06T17:40:15.879Z,18.66
2023-03-06T17:42:42.315Z,18.66
2023-03-06T17:45:09.566Z,18.66
2023-03-06T17:47:37.406Z,18.63
2023-03-06T17:50:04.536Z,18.62
2023-03-06T17:52:30.841Z,18.60
2023-03-06T17:54:57.205Z,18.59
2023-03-06T17:57:23.477Z,18.57
2023-03-06T17:59:50.160Z,18.55
2023-03-06T18:02:20.415Z,18.53
2023-03-06T18:04:47.551Z,18.50
2023-03-06T18:07:14.767Z,18.47
2023-03-06T18:09:41.188Z,18.44
2023-03-06T18:12:08.251Z,18.42
2023-03-06T18:14:34.830Z,18.43
2023-03-06T18:17:01.154Z,18.41
2023-03-06T18:19:27.538Z,18.44
2023-03-06T18:21:54.544Z,18.54
2023-03-06T18:24:24.084Z,18.57
2023-03-06T18:26:50.732Z,18.79
2023-03-06T18:29:17.435Z,18.92
2023-03-06T18:31:45.582Z,19.01
2023-03-06T18:34:11.952Z,19.17
2023-03-06T18:36:38.455Z,19.30
2023-03-06T18:39:04.835Z,19.44
2023-03-06T18:41:31.258Z,19.54
2023-03-06T18:43:58.340Z,19.61
2023-03-06T18:46:25.758Z,19.70
2023-03-06T18:48:53.626Z,19.80
2023-03-06T18:51:20.595Z,19.88
2023-03-06T18:53:49.177Z,19.95
2023-03-06T18:56:18.609Z,19.99
2023-03-06T18:58:46.490Z,20.02
2023-03-06T19:01:12.825Z,20.04
2023-03-06T19:03:39.299Z,20.04
2023-03-06T19:06:06.865Z,20.02
2023-03-06T19:08:33.218Z,20.02
2023-03-06T19:10:59.665Z,20.01
2023-03-06T19:13:27.395Z,19.98
2023-03-06T19:15:55.414Z,19.92
2023-03-06T19:18:21.898Z,19.85
2023-03-06T19:20:49.547Z,19.77
2023-03-06T19:23:16.634Z,19.71
2023-03-06T19:25:43.499Z,19.64
2023-03-06T19:28:10.510Z,19.61
2023-03-06T19:30:37.199Z,19.58
2023-03-06T19:33:04.319Z,19.53
2023-03-06T19:35:32.569Z,19.48
2023-03-06T19:37:59.828Z,19.44
2023-03-06T19:40:26.103Z,19.40
2023-03-06T19:42:53.076Z,19.35
2023-03-06T19:45:20.353Z,19.29
2023-03-06T19:47:47.007Z,19.24
2023-03-06T19:50:13.444Z,19.21
2023-03-06T19:52:41.424Z,19.16
2023-03-06T19:55:08.379Z,19.12
2023-03-06T19:57:34.669Z,19.07
2023-03-06T20:00:03.461Z,19.04
2023-03-06T20:02:31.361Z,19.00
2023-03-06T20:04:58.236Z,18.99
2023-03-06T20:07:24.570Z,18.95
2023-03-06T20:09:50.873Z,18.93
2023-03-06T20:12:17.302Z,18.90
2023-03-06T20:14:44.371Z,18.90
2023-03-06T20:17:12.110Z,18.87
2023-03-06T20:19:39.081Z,18.85
2023-03-06T20:22:06.042Z,18.84
2023-03-06T20:24:32.431Z,18.86
2023-03-06T20:26:58.832Z,18.87
2023-03-06T20:29:28.450Z,18.94
2023-03-06T20:31:55.280Z,19.02
2023-03-06T20:34:21.774Z,19.12
2023-03-06T20:36:50.344Z,19.27
2023-03-06T20:39:16.773Z,19.41
2023-03-06T20:41:45.032Z,19.53
2023-03-06T20:44:13.470Z,19.65
2023-03-06T20:46:41.276Z,19.75
2023-03-06T20:49:07.624Z,19.87
2023-03-06T20:51:35.210Z,19.98
2023-03-06T20:54:01.533Z,20.08
2023-03-06T20:56:30.374Z,20.13
2023-03-06T20:58:56.704Z,20.17
2023-03-06T21:01:25.502Z,20.21
2023-03-06T21:03:52.212Z,20.25
2023-03-06T21:06:20.086Z,20.27
2023-03-06T21:08:46.583Z,20.31
2023-03-06T21:11:13.147Z,20.34
2023-03-06T21:13:40.188Z,20.37
2023-03-06T21:16:08.391Z,20.40
2023-03-06T21:18:36.521Z,20.41
2023-03-06T21:21:03.214Z,20.42
2023-03-06T21:23:30.478Z,20.47
2023-03-06T21:25:56.805Z,20.49
2023-03-06T21:28:25.439Z,20.52
2023-03-06T21:30:51.817Z,20.52
2023-03-06T21:33:20.615Z,20.54
2023-03-06T21:35:47.257Z,20.53
2023-03-06T21:38:13.657Z,20.53
2023-03-06T21:40:40.496Z,20.55
2023-03-06T21:43:07.087Z,20.57
2023-03-06T21:45:34.130Z,20.59
2023-03-06T21:48:02.430Z,20.61
2023-03-06T21:50:28.888Z,20.61
2023-03-06T21:52:56.652Z,20.63
2023-03-06T21:55:22.897Z,20.65
2023-03-06T21:57:49.245Z,20.67
2023-03-06T22:00:15.613Z,20.67
2023-03-06T22:02:41.976Z,20.69
2023-03-06T22:05:08.252Z,20.72
2023-03-06T22:07:34.950Z,20.75
2023-03-06T22:10:01.883Z,20.74
2023-03-06T22:12:28.606Z,20.73
2023-03-06T22:14:55.793Z,20.74
2023-03-06T22:17:22.136Z,20.77
2023-03-06T22:19:49.170Z,20.77
2023-03-06T22:22:15.475Z,20.77
2023-03-06T22:24:43.530Z,20.78
2023-03-06T22:27:10.021Z,20.82
2023-03-06T22:29:38.298Z,20.82
2023-03-06T22:32:05.313Z,20.85
2023-03-06T22:34:32.908Z,20.86
2023-03-06T22:37:00.392Z,20.87
2023-03-06T22:39:26.666Z,20.87
2023-03-06T22:41:53.362Z,20.89
2023-03-06T22:44:22.457Z,20.90
2023-03-06T22:46:49.006Z,20.91
2023-03-06T22:49:16.800Z,20.94
2023-03-06T22:51:47.416Z,20.94
2023-03-06T22:54:14.876Z,20.95
2023-03-06T22:56:41.460Z,20.98
2023-03-06T22:59:08.604Z,20.99
2023-03-06T23:01:37.488Z,21.01
2023-03-06T23:04:05.214Z,20.99
2023-03-06T23:06:37.191Z,20.93
2023-03-06T23:09:05.311Z,20.84
2023-03-06T23:11:32.772Z,20.76
2023-03-06T23:14:00.299Z,20.67
2023-03-06T23:16:30.215Z,20.57
2023-03-06T23:18:58.151Z,20.47
2023-03-06T23:21:25.763Z,20.36
2023-03-06T23:23:53.730Z,20.24
2023-03-06T23:26:21.028Z,20.12
2023-03-06T23:28:47.309Z,20.00
2023-03-06T23:31:15.035Z,19.87
2023-03-06T23:33:41.795Z,19.75
2023-03-06T23:36:08.375Z,19.63
2023-03-06T23:38:38.338Z,19.52
2023-03-06T23:41:05.685Z,19.41
2023-03-06T23:43:33.175Z,19.30
2023-03-06T23:45:59.625Z,19.18
2023-03-06T23:48:26.296Z,19.07
2023-03-06T23:50:52.564Z,18.95
2023-03-06T23:53:18.853Z,18.84
2023-03-06T23:55:47.168Z,18.74
2023-03-06T23:58:14.214Z,18.65
